createdAt,value
2023-04-12T00:02:19.449Z,100.00
2023-04-12T00:05:03.086Z,100.00
2023-04-12T00:07:31.509Z,100.00
2023-04-12T00:10:05.711Z,100.00
2023-04-12T00:12:35.077Z,100.00
2023-04-12T00:15:02.182Z,100.00
2023-04-12T00:17:40.675Z,100.00
2023-04-12T00:20:16.698Z,100.00
2023-04-12T00:22:47.431Z,100.00
2023-04-12T00:25:17.132Z,100.00
2023-04-12T00:27:48.156Z,100.00
2023-04-12T00:30:17.475Z,100.00
2023-04-12T00:32:57.344Z,100.00
2023-04-12T00:35:33.772Z,100.00
2023-04-12T00:38:11.074Z,100.00
2023-04-12T00:40:50.099Z,100.00
2023-04-12T00:43:24.417Z,100.00
2023-04-12T00:45:56.779Z,100.00
2023-04-12T00:48:28.741Z,100.00
2023-04-12T00:50:58.051Z,100.00
2023-04-12T00:53:29.508Z,100.00
2023-04-12T00:55:59.853Z,100.00
2023-04-12T00:58:28.335Z,100.00
2023-04-12T01:00:57.373Z,100.00
2023-04-12T01:03:34.697Z,100.00
2023-04-12T01:06:14.539Z,100.00
2023-04-12T01:09:05.306Z,100.00
2023-04-12T01:11:38.458Z,100.00
2023-04-12T01:14:10.079Z,100.00
2023-04-12T01:16:42.189Z,100.00
2023-04-12T01:19:19.819Z,100.00
2023-04-12T01:21:53.228Z,100.00
2023-04-12T01:24:26.732Z,100.00
2023-04-12T01:26:57.827Z,100.00
2023-04-12T01:29:29.452Z,100.00
2023-04-12T01:32:05.965Z,100.00
2023-04-12T01:34:34.210Z,100.00
2023-04-12T01:37:03.806Z,100.00
2023-04-12T01:39:33.013Z,100.00
2023-04-12T01:42:03.010Z,100.00
2023-04-12T01:44:30.388Z,100.00
2023-04-12T01:47:00.826Z,100.00
2023-04-12T01:49:41.872Z,100.00
2023-04-12T01:52:13.358Z,100.00
2023-04-12T01:54:42.720Z,100.00
2023-04-12T01:57:10.128Z,100.00
2023-04-12T01:59:43.720Z,100.00
2023-04-12T02:02:21.490Z,100.00
2023-04-12T02:04:52.728Z,100.00
2023-04-12T02:07:28.999Z,100.00
2023-04-12T02:09:59.633Z,100.00
2023-04-12T02:12:29.687Z,100.00
2023-04-12T02:14:58.492Z,100.00
2023-04-12T02:17:32.282Z,100.00
2023-04-12T02:20:00.089Z,100.00
2023-04-12T02:22:31.187Z,100.00
2023-04-12T02:25:00.101Z,100.00
2023-04-12T02:27:31.429Z,100.00
2023-04-12T02:29:59.802Z,100.00
2023-04-12T02:32:27.401Z,100.00
2023-04-12T02:34:57.880Z,100.00
2023-04-12T02:37:29.341Z,100.00
2023-04-12T02:40:02.767Z,100.00
2023-04-12T02:42:31.561Z,100.00
2023-04-12T02:45:08.601Z,100.00
2023-04-12T02:47:42.000Z,100.00
2023-04-12T02:50:12.702Z,100.00
2023-04-12T02:53:02.603Z,100.00
2023-04-12T02:55:33.846Z,100.00
2023-04-12T02:58:07.737Z,100.00
2023-04-12T03:00:48.047Z,100.00
2023-04-12T03:03:18.390Z,100.00
2023-04-12T03:05:54.433Z,100.00
2023-04-12T03:08:24.549Z,100.00
2023-04-12T03:10:59.146Z,100.00
2023-04-12T03:13:36.516Z,100.00
2023-04-12T03:16:23.292Z,100.00
2023-04-12T03:19:01.636Z,100.00
2023-04-12T03:21:32.300Z,100.00
2023-04-12T03:24:06.181Z,100.00
2023-04-12T03:26:36.616Z,100.00
2023-04-12T03:29:13.288Z,100.00
2023-04-12T03:31:42.643Z,100.00
2023-04-12T03:34:11.073Z,100.00
2023-04-12T03:36:47.666Z,100.00
2023-04-12T03:39:24.650Z,100.00
2023-04-12T03:41:56.784Z,100.00
2023-04-12T03:44:29.268Z,100.00
2023-04-12T03:47:12.360Z,100.00
2023-04-12T03:50:06.000Z,100.00
2023-04-12T03:52:44.281Z,100.00
2023-04-12T03:55:16.224Z,100.00
2023-04-12T03:57:48.271Z,100.00
2023-04-12T04:00:21.420Z,100.00
2023-04-12T04:03:09.812Z,100.00
2023-04-12T04:05:43.246Z,100.00
2023-04-12T04:08:16.919Z,100.00
2023-04-12T04:11:06.210Z,100.00
2023-04-12T04:13:39.721Z,100.00
2023-04-12T04:16:15.499Z,100.00
2023-04-12T04:18:44.634Z,100.00
2023-04-12T04:21:14.684Z,100.00
2023-04-12T04:23:45.702Z,100.00
2023-04-12T04:26:20.947Z,100.00
2023-04-12T04:29:02.010Z,100.00
2023-04-12T04:31:38.834Z,100.00
2023-04-12T04:34:12.330Z,100.00
2023-04-12T04:36:45.702Z,100.00
2023-04-12T04:39:23.755Z,100.00
2023-04-12T04:42:02.136Z,100.00
2023-04-12T04:44:43.201Z,100.00
2023-04-12T04:47:12.930Z,100.00
2023-04-12T04:49:43.513Z,100.00
2023-04-12T04:52:25.013Z,100.00
2023-04-12T04:54:58.934Z,100.00
2023-04-12T04:57:35.239Z,100.00
2023-04-12T05:00:14.122Z,100.00
2023-04-12T05:02:48.910Z,100.00
2023-04-12T05:08:14.468Z,100.00
2023-04-12T05:10:44.706Z,100.00
2023-04-12T05:13:13.231Z,100.00
2023-04-12T05:15:41.612Z,100.00
2023-04-12T05:18:09.508Z,100.00
2023-04-12T05:20:39.951Z,100.00
2023-04-12T05:23:07.563Z,100.00
2023-04-12T05:25:38.066Z,100.00
2023-04-12T05:28:14.451Z,100.00
2023-04-12T05:30:45.119Z,100.00
2023-04-12T05:33:21.593Z,100.00
2023-04-12T05:35:53.663Z,100.00
2023-04-12T05:38:29.532Z,100.00
2023-04-12T05:41:07.355Z,100.00
2023-04-12T05:43:38.119Z,100.00
2023-04-12T05:46:08.154Z,100.00
2023-04-12T05:48:38.093Z,100.00
2023-04-12T05:51:06.055Z,100.00
2023-04-12T05:53:41.171Z,100.00
2023-04-12T05:56:12.096Z,100.00
2023-04-12T05:58:40.447Z,100.00
2023-04-12T06:01:09.589Z,100.00
2023-04-12T06:03:42.044Z,100.00
2023-04-12T06:06:15.809Z,100.00
2023-04-12T06:08:44.146Z,100.00
2023-04-12T06:11:13.255Z,100.00
2023-04-12T06:13:46.528Z,100.00
2023-04-12T06:16:14.866Z,100.00
2023-04-12T06:18:42.079Z,100.00
2023-04-12T06:21:09.543Z,100.00
2023-04-12T06:23:36.989Z,100.00
2023-04-12T06:26:04.505Z,100.00
2023-04-12T06:28:32.978Z,100.00
2023-04-12T06:31:01.195Z,100.00
2023-04-12T06:33:32.921Z,100.00
2023-04-12T06:36:03.260Z,100.00
2023-04-12T06:38:35.985Z,100.00
2023-04-12T06:41:09.372Z,100.00
2023-04-12T06:43:39.879Z,100.00
2023-04-12T06:46:13.945Z,100.00
2023-04-12T06:48:44.380Z,100.00
2023-04-12T06:51:11.862Z,100.00
2023-04-12T06:53:39.334Z,87.35
2023-04-12T06:56:08.224Z,70.43
2023-04-12T06:58:36.608Z,53.90
2023-04-12T07:01:05.074Z,48.35
2023-04-12T07:03:35.318Z,43.44
2023-04-12T07:06:17.612Z,39.75
2023-04-12T07:08:53.356Z,40.67
2023-04-12T07:11:23.333Z,38.50
2023-04-12T07:13:55.651Z,36.66
2023-04-12T07:16:23.425Z,37.86
2023-04-12T07:18:51.459Z,35.07
2023-04-12T07:21:18.927Z,35.93
2023-04-12T07:23:46.949Z,33.44
2023-04-12T07:26:18.303Z,34.19
2023-04-12T07:28:47.574Z,33.64
2023-04-12T07:31:15.051Z,33.27
2023-04-12T07:33:45.050Z,32.09
2023-04-12T07:36:16.578Z,34.13
2023-04-12T07:38:49.074Z,32.70
2023-04-12T07:41:18.610Z,31.06
2023-04-12T07:43:47.928Z,30.99
2023-04-12T07:46:16.708Z,32.46
2023-04-12T07:48:44.189Z,29.82
2023-04-12T07:51:13.288Z,30.06
2023-04-12T07:53:42.344Z,33.06
2023-04-12T07:56:09.682Z,32.01
2023-04-12T07:58:36.699Z,32.34
2023-04-12T08:01:04.740Z,31.44
2023-04-12T08:03:34.416Z,29.75
2023-04-12T08:06:05.920Z,29.67
2023-04-12T08:08:33.061Z,29.15
2023-04-12T08:11:02.944Z,31.00
2023-04-12T08:13:36.412Z,28.99
2023-04-12T08:16:04.692Z,27.98
2023-04-12T08:18:32.442Z,28.22
2023-04-12T08:20:59.892Z,28.26
2023-04-12T08:24:32.080Z,30.30
2023-04-12T08:27:01.755Z,31.30
2023-04-12T08:29:29.105Z,30.61
2023-04-12T08:31:57.415Z,28.63
2023-04-12T08:34:25.129Z,29.50
2023-04-12T08:36:55.844Z,29.00
2023-04-12T08:39:23.774Z,28.72
2023-04-12T08:41:51.999Z,31.44
2023-04-12T08:44:20.163Z,31.75
2023-04-12T08:46:47.845Z,30.35
2023-04-12T08:49:18.866Z,30.16
2023-04-12T08:51:48.602Z,29.73
2023-04-12T08:54:17.384Z,29.70
2023-04-12T08:56:47.981Z,28.57
2023-04-12T08:59:15.863Z,30.62
2023-04-12T09:01:47.982Z,31.32
2023-04-12T09:04:17.264Z,32.43
2023-04-12T09:06:47.773Z,30.74
2023-04-12T09:09:14.958Z,31.64
2023-04-12T09:11:43.644Z,34.17
2023-04-12T09:14:25.246Z,31.20
2023-04-12T09:16:57.039Z,32.46
2023-04-12T09:19:38.139Z,31.38
2023-04-12T09:22:05.520Z,30.87
2023-04-12T09:24:45.750Z,32.95
2023-04-12T09:27:13.965Z,31.48
2023-04-12T09:29:51.522Z,29.55
2023-04-12T09:32:29.533Z,30.66
2023-04-12T09:34:59.325Z,28.37
2023-04-12T09:37:27.923Z,29.33
2023-04-12T09:40:02.188Z,32.29
2023-04-12T09:42:35.089Z,31.78
2023-04-12T09:45:24.170Z,30.33
2023-04-12T09:47:52.445Z,31.27
2023-04-12T09:50:25.977Z,28.36
2023-04-12T09:52:54.868Z,29.91
2023-04-12T09:55:23.416Z,29.24
2023-04-12T09:57:53.267Z,33.27
2023-04-12T10:00:27.474Z,30.74
2023-04-12T10:02:56.236Z,30.59
2023-04-12T10:05:28.371Z,30.46
2023-04-12T10:08:01.263Z,30.07
2023-04-12T10:10:34.076Z,32.16
2023-04-12T10:13:02.308Z,32.65
2023-04-12T10:15:32.326Z,31.52
2023-04-12T10:18:05.760Z,29.42
2023-04-12T10:20:38.036Z,30.75
2023-04-12T10:23:09.373Z,30.39
2023-04-12T10:25:40.329Z,32.24
2023-04-12T10:28:15.951Z,31.79
2023-04-12T10:30:44.835Z,32.99
2023-04-12T10:33:30.228Z,33.79
2023-04-12T10:36:04.126Z,31.15
2023-04-12T10:38:45.978Z,29.84
2023-04-12T10:41:14.122Z,33.31
2023-04-12T10:43:49.410Z,32.98
2023-04-12T10:46:40.282Z,30.84
2023-04-12T10:49:10.648Z,31.67
2023-04-12T10:51:38.810Z,32.38
2023-04-12T10:54:22.302Z,30.64
2023-04-12T10:56:52.683Z,31.21
2023-04-12T10:59:52.554Z,30.75
2023-04-12T11:02:20.613Z,31.65
2023-04-12T11:05:10.052Z,32.42
2023-04-12T11:07:56.805Z,30.03
2023-04-12T11:10:47.187Z,32.16
2023-04-12T11:13:27.272Z,30.33
2023-04-12T11:16:00.616Z,29.85
2023-04-12T11:18:29.835Z,30.30
2023-04-12T11:20:58.183Z,31.08
2023-04-12T11:23:30.149Z,30.62
2023-04-12T11:25:59.628Z,29.57
2023-04-12T11:28:30.671Z,30.61
2023-04-12T11:31:01.314Z,31.04
2023-04-12T11:33:37.397Z,30.22
2023-04-12T11:36:09.845Z,29.48
2023-04-12T11:38:40.336Z,29.99
2023-04-12T11:41:10.201Z,28.65
2023-04-12T11:43:38.986Z,30.28
2023-04-12T11:46:08.648Z,29.78
2023-04-12T11:48:39.862Z,32.33
2023-04-12T11:51:20.383Z,31.81
2023-04-12T11:53:53.867Z,30.82
2023-04-12T11:56:24.967Z,31.54
2023-04-12T11:58:56.372Z,30.89
2023-04-12T12:01:29.029Z,32.50
2023-04-12T12:03:57.323Z,30.94
2023-04-12T12:06:26.614Z,30.84
2023-04-12T12:08:56.280Z,31.26
2023-04-12T12:11:28.489Z,34.68
2023-04-12T12:13:59.042Z,31.96
2023-04-12T12:16:29.835Z,31.81
2023-04-12T12:19:01.127Z,31.57
2023-04-12T12:21:31.853Z,32.63
2023-04-12T12:24:05.669Z,33.94
2023-04-12T12:26:34.875Z,33.12
2023-04-12T12:29:07.146Z,32.22
2023-04-12T12:31:35.986Z,33.01
2023-04-12T12:34:09.100Z,34.64
2023-04-12T12:36:40.639Z,32.52
2023-04-12T12:39:14.285Z,34.31
2023-04-12T12:41:45.386Z,33.09
2023-04-12T12:44:13.385Z,33.14
2023-04-12T12:46:56.895Z,32.78
2023-04-12T12:49:31.590Z,33.04
2023-04-12T12:52:01.841Z,32.99
2023-04-12T12:54:41.142Z,33.52
2023-04-12T12:57:13.048Z,33.21
2023-04-12T12:59:40.655Z,35.08
2023-04-12T13:02:18.798Z,34.30
2023-04-12T13:04:48.800Z,34.82
2023-04-12T13:07:17.327Z,34.88
2023-04-12T13:09:45.957Z,35.45
2023-04-12T13:12:17.131Z,35.96
2023-04-12T13:14:45.268Z,36.09
2023-04-12T13:17:17.121Z,35.17
2023-04-12T13:19:50.965Z,35.63
2023-04-12T13:22:22.154Z,34.82
2023-04-12T13:24:52.449Z,35.22
2023-04-12T13:27:20.137Z,34.99
2023-04-12T13:29:49.878Z,35.63
2023-04-12T13:32:19.019Z,34.83
2023-04-12T13:34:49.424Z,35.86
2023-04-12T13:37:19.141Z,36.16
2023-04-12T13:39:49.801Z,35.97
2023-04-12T13:42:19.479Z,34.90
2023-04-12T13:44:49.077Z,34.74
2023-04-12T13:47:23.084Z,35.53
2023-04-12T13:49:50.650Z,35.69
2023-04-12T13:52:21.515Z,36.51
2023-04-12T13:54:55.074Z,36.41
2023-04-12T13:57:31.464Z,35.46
2023-04-12T14:00:00.878Z,36.58
2023-04-12T14:02:31.487Z,37.14
2023-04-12T14:05:01.095Z,36.22
2023-04-12T14:07:35.775Z,35.96
2023-04-12T14:10:07.566Z,36.17
2023-04-12T14:12:40.051Z,36.79
2023-04-12T14:15:09.481Z,36.98
2023-04-12T14:17:37.911Z,36.74
2023-04-12T14:20:11.574Z,38.65
2023-04-12T14:22:42.689Z,40.87
2023-04-12T14:25:15.022Z,42.41
2023-04-12T14:27:42.711Z,42.08
2023-04-12T14:30:10.050Z,42.08
2023-04-12T14:32:39.381Z,43.09
2023-04-12T14:35:11.953Z,44.03
2023-04-12T14:37:40.757Z,44.51
2023-04-12T14:40:10.065Z,44.26
2023-04-12T14:42:48.329Z,46.90
2023-04-12T14:45:24.893Z,44.48
2023-04-12T14:47:52.582Z,46.08
2023-04-12T14:50:20.426Z,46.60
2023-04-12T14:52:51.235Z,46.05
2023-04-12T14:55:19.350Z,47.17
2023-04-12T14:57:49.024Z,46.80
2023-04-12T15:00:28.577Z,45.12
2023-04-12T15:03:01.350Z,45.62
2023-04-12T15:05:29.653Z,45.84
2023-04-12T15:08:00.094Z,45.59
2023-04-12T15:10:28.321Z,45.97
2023-04-12T15:12:58.189Z,46.17
2023-04-12T15:15:29.248Z,47.90
2023-04-12T15:18:03.785Z,47.61
2023-04-12T15:20:31.528Z,47.01
2023-04-12T15:23:06.687Z,47.48
2023-04-12T15:25:36.337Z,47.68
2023-04-12T15:28:08.304Z,47.82
2023-04-12T15:30:36.353Z,48.53
2023-04-12T15:33:11.450Z,48.75
2023-04-12T15:35:40.639Z,46.85
2023-04-12T15:38:14.499Z,47.13
2023-04-12T15:40:44.453Z,47.15
2023-04-12T15:43:12.064Z,46.64
2023-04-12T15:45:40.544Z,45.05
2023-04-12T15:48:09.754Z,43.70
2023-04-12T15:50:37.830Z,43.40
2023-04-12T15:53:09.132Z,42.59
2023-04-12T15:55:36.437Z,42.32
2023-04-12T15:58:08.713Z,43.14
2023-04-12T16:00:39.874Z,43.09
2023-04-12T16:03:10.324Z,43.36
2023-04-12T16:05:39.939Z,42.89
2023-04-12T16:08:11.278Z,43.86
2023-04-12T16:10:40.610Z,44.70
2023-04-12T16:13:10.266Z,44.82
2023-04-12T16:15:38.051Z,44.66
2023-04-12T16:18:06.389Z,45.44
2023-04-12T16:20:34.375Z,45.73
2023-04-12T16:23:03.802Z,45.28
2023-04-12T16:25:33.951Z,45.99
2023-04-12T16:28:08.693Z,46.33
2023-04-12T16:30:38.215Z,46.67
2023-04-12T16:33:10.120Z,47.85
2023-04-12T16:35:41.296Z,47.77
2023-04-12T16:38:10.232Z,48.12
2023-04-12T16:40:39.726Z,48.13
2023-04-12T16:43:08.960Z,48.68
2023-04-12T16:45:38.140Z,49.32
2023-04-12T16:48:12.699Z,50.01
2023-04-12T16:50:41.314Z,51.01
2023-04-12T16:53:09.757Z,49.57
2023-04-12T16:55:47.511Z,49.73
2023-04-12T16:58:19.394Z,50.06
2023-04-12T17:00:52.134Z,51.01
2023-04-12T17:03:40.296Z,52.81
2023-04-12T17:06:12.101Z,52.56
2023-04-12T17:08:42.650Z,52.95
2023-04-12T17:11:13.211Z,53.35
2023-04-12T17:13:52.072Z,54.09
2023-04-12T17:16:22.043Z,54.24
2023-04-12T17:18:51.492Z,54.98
2023-04-12T17:21:25.167Z,55.23
2023-04-12T17:23:58.849Z,56.22
2023-04-12T17:26:35.038Z,56.81
2023-04-12T17:29:06.794Z,57.80
2023-04-12T17:31:44.415Z,57.80
2023-04-12T17:34:16.859Z,58.42
2023-04-12T17:36:46.957Z,59.20
2023-04-12T17:39:15.910Z,59.38
2023-04-12T17:41:47.742Z,60.29
2023-04-12T17:44:16.746Z,60.69
2023-04-12T17:46:46.027Z,61.62
2023-04-12T17:49:14.539Z,62.54
2023-04-12T17:51:50.357Z,63.27
2023-04-12T17:54:18.763Z,64.41
2023-04-12T17:56:49.479Z,65.91
2023-04-12T17:59:24.529Z,67.26
2023-04-12T18:01:53.719Z,68.69
2023-04-12T18:04:25.518Z,67.29
2023-04-12T18:07:00.065Z,67.89
2023-04-12T18:09:30.326Z,69.88
2023-04-12T18:12:01.217Z,71.25
2023-04-12T18:14:37.489Z,72.13
2023-04-12T18:17:09.749Z,73.05
2023-04-12T18:19:43.553Z,71.95
2023-04-12T18:22:16.934Z,71.87
2023-04-12T18:24:45.086Z,72.52
2023-04-12T18:27:15.779Z,73.40
2023-04-12T18:29:45.706Z,73.56
2023-04-12T18:32:18.086Z,73.87
2023-04-12T18:34:54.534Z,72.57
2023-04-12T18:37:30.412Z,73.03
2023-04-12T18:40:08.628Z,72.86
2023-04-12T18:42:38.134Z,74.80
2023-04-12T18:45:14.864Z,75.98
2023-04-12T18:47:45.114Z,78.30
2023-04-12T18:50:18.420Z,78.31
2023-04-12T18:52:50.851Z,79.26
2023-04-12T18:55:24.243Z,79.28
2023-04-12T18:57:57.396Z,80.40
2023-04-12T19:00:28.828Z,82.14
2023-04-12T19:03:00.184Z,83.52
2023-04-12T19:05:44.650Z,86.12
2023-04-12T19:11:08.583Z,87.53
2023-04-12T19:13:43.261Z,86.94
2023-04-12T19:16:25.862Z,86.55
2023-04-12T19:18:59.397Z,87.96
2023-04-12T19:21:40.239Z,87.75
2023-04-12T19:24:14.538Z,89.40
2023-04-12T19:26:48.286Z,90.99
2023-04-12T19:29:17.614Z,91.11
2023-04-12T19:31:55.617Z,92.00
2023-04-12T19:34:46.028Z,92.09
2023-04-12T19:37:20.338Z,92.78
2023-04-12T19:39:51.471Z,93.79
2023-04-12T19:42:20.544Z,94.70
2023-04-12T19:44:57.470Z,95.13
2023-04-12T19:47:27.912Z,98.14
2023-04-12T19:49:58.947Z,98.31
2023-04-12T19:52:33.653Z,100.00
2023-04-12T19:55:09.058Z,100.00
2023-04-12T19:57:46.710Z,100.00
2023-04-12T20:03:07.572Z,100.00
2023-04-12T20:05:36.241Z,100.00
2023-04-12T20:08:06.038Z,100.00
2023-04-12T20:10:42.520Z,100.00
2023-04-12T20:13:16.194Z,100.00
2023-04-12T20:15:48.808Z,100.00
2023-04-12T20:18:23.006Z,100.00
2023-04-12T20:20:52.513Z,100.00
2023-04-12T20:23:24.810Z,100.00
2023-04-12T20:25:58.063Z,100.00
2023-04-12T20:28:32.796Z,100.00
2023-04-12T20:31:05.059Z,100.00
2023-04-12T20:33:39.693Z,100.00
2023-04-12T20:36:07.365Z,100.00
2023-04-12T20:38:38.413Z,100.00
2023-04-12T20:41:07.034Z,100.00
2023-04-12T20:43:37.105Z,100.00
2023-04-12T20:46:11.458Z,100.00
2023-04-12T20:48:42.011Z,100.00
2023-04-12T20:51:11.997Z,100.00
2023-04-12T20:53:40.226Z,100.00
2023-04-12T20:56:11.874Z,100.00
2023-04-12T20:58:42.025Z,100.00
2023-04-12T21:01:17.417Z,100.00
2023-04-12T21:03:46.984Z,100.00
2023-04-12T21:06:15.960Z,100.00
2023-04-12T21:08:48.125Z,100.00
2023-04-12T21:11:15.469Z,100.00
2023-04-12T21:13:48.044Z,100.00
2023-04-12T21:16:18.826Z,100.00
2023-04-12T21:18:46.561Z,100.00
2023-04-12T21:21:15.502Z,100.00
2023-04-12T21:23:45.080Z,100.00
2023-04-12T21:26:13.028Z,100.00
2023-04-12T21:28:48.708Z,100.00
2023-04-12T21:31:18.283Z,100.00
2023-04-12T21:33:51.958Z,100.00
2023-04-12T21:36:21.696Z,100.00
2023-04-12T21:38:49.770Z,100.00
2023-04-12T21:41:18.293Z,100.00
2023-04-12T21:43:50.248Z,100.00
2023-04-12T21:46:20.055Z,100.00
2023-04-12T21:48:52.407Z,100.00
2023-04-12T21:51:20.590Z,100.00
2023-04-12T21:53:50.930Z,100.00
2023-04-12T21:56:18.112Z,100.00
2023-04-12T21:58:46.725Z,100.00
2023-04-12T22:01:23.693Z,100.00
2023-04-12T22:03:51.390Z,100.00
2023-04-12T22:06:23.064Z,100.00
2023-04-12T22:08:52.215Z,100.00
2023-04-12T22:11:21.069Z,100.00
2023-04-12T22:13:53.983Z,100.00
2023-04-12T22:16:25.356Z,100.00
2023-04-12T22:19:03.469Z,100.00
2023-04-12T22:21:37.433Z,100.00
2023-04-12T22:24:08.190Z,100.00
2023-04-12T22:26:37.991Z,100.00
2023-04-12T22:29:06.165Z,100.00
2023-04-12T22:31:35.698Z,100.00
2023-04-12T22:34:10.775Z,100.00
2023-04-12T22:36:43.295Z,100.00
2023-04-12T22:39:10.749Z,100.00
2023-04-12T22:41:39.306Z,100.00
2023-04-12T22:44:10.632Z,100.00
2023-04-12T22:46:40.090Z,100.00
2023-04-12T22:49:16.125Z,100.00
2023-04-12T22:51:43.796Z,100.00
2023-04-12T22:54:12.746Z,100.00
2023-04-12T22:56:49.718Z,100.00
2023-04-12T22:59:23.219Z,100.00
2023-04-12T23:01:56.222Z,100.00
2023-04-12T23:04:27.659Z,100.00
2023-04-12T23:06:57.983Z,100.00
2023-04-12T23:09:27.490Z,100.00
2023-04-12T23:11:56.306Z,100.00
2023-04-12T23:14:26.259Z,100.00
2023-04-12T23:16:54.669Z,100.00
2023-04-12T23:19:24.276Z,100.00
2023-04-12T23:21:56.653Z,100.00
2023-04-12T23:24:25.128Z,100.00
2023-04-12T23:26:58.535Z,100.00
2023-04-12T23:29:27.573Z,100.00
2023-04-12T23:31:55.107Z,100.00
2023-04-12T23:34:22.888Z,100.00
2023-04-12T23:36:51.753Z,100.00
2023-04-12T23:39:23.092Z,100.00
2023-04-12T23:41:54.107Z,100.00
2023-04-12T23:44:28.051Z,100.00
2023-04-12T23:47:07.876Z,100.00
2023-04-12T23:49:38.367Z,100.00
2023-04-12T23:52:08.722Z,100.00
2023-04-12T23:54:38.358Z,100.00
2023-04-12T23:57:05.490Z,100.00
2023-04-12T23:59:36.621Z,100.00
